createdAt,value
2022-10-11T00:00:42.073Z,11.83
2022-10-11T00:03:08.557Z,7.97
2022-10-11T00:05:35.393Z,10.87
2022-10-11T00:08:01.813Z,6.87
2022-10-11T00:10:28.158Z,10.57
2022-10-11T00:12:54.505Z,7.77
2022-10-11T00:15:22.801Z,8.83
2022-10-11T00:17:49.389Z,10.33
2022-10-11T00:20:15.922Z,6.73
2022-10-11T00:22:42.996Z,10.47
2022-10-11T00:25:11.369Z,8.27
2022-10-11T00:27:38.404Z,12.43
2022-10-11T00:30:06.656Z,6.67
2022-10-11T00:32:34.610Z,10.43
2022-10-11T00:35:04.705Z,8.17
2022-10-11T00:37:32.217Z,9.77
2022-10-11T00:39:58.641Z,13.23
2022-10-11T00:42:25.403Z,10.37
2022-10-11T00:44:51.729Z,10.43
2022-10-11T00:47:24.482Z,6.17
2022-10-11T00:50:00.946Z,7.60
2022-10-11T00:52:32.030Z,7.50
2022-10-11T00:55:02.606Z,11.80
2022-10-11T00:57:33.970Z,10.20
2022-10-11T01:00:01.240Z,7.43
2022-10-11T01:02:27.621Z,12.40
2022-10-11T01:05:05.907Z,7.30
2022-10-11T01:07:39.000Z,12.73
2022-10-11T01:10:05.591Z,8.13
2022-10-11T01:12:32.012Z,9.33
2022-10-11T01:15:22.493Z,13.20
2022-10-11T01:18:19.383Z,9.10
2022-10-11T01:21:25.956Z,13.07
2022-10-11T01:24:10.448Z,12.77
2022-10-11T01:26:49.048Z,10.93
2022-10-11T01:29:39.234Z,11.23
2022-10-11T01:32:17.480Z,11.13
2022-10-11T01:35:05.548Z,14.40
2022-10-11T01:37:37.077Z,11.27
2022-10-11T01:40:11.719Z,10.53
2022-10-11T01:42:40.130Z,8.80
2022-10-11T01:45:13.899Z,10.77
2022-10-11T01:47:42.341Z,11.93
2022-10-11T01:50:33.006Z,9.03
2022-10-11T01:53:19.905Z,11.43
2022-10-11T01:56:04.975Z,9.17
2022-10-11T01:58:49.973Z,10.73
2022-10-11T02:01:34.957Z,14.20
2022-10-11T02:04:11.022Z,8.70
2022-10-11T02:06:51.485Z,8.90
2022-10-11T02:09:28.746Z,8.17
2022-10-11T02:11:59.037Z,12.20
2022-10-11T02:14:31.774Z,14.43
2022-10-11T02:17:04.377Z,11.37
2022-10-11T02:19:38.438Z,9.73
2022-10-11T02:22:10.245Z,14.30
2022-10-11T02:24:41.725Z,9.33
2022-10-11T02:27:10.411Z,14.30
2022-10-11T02:29:41.382Z,13.43
2022-10-11T02:32:10.188Z,10.23
2022-10-11T02:34:52.869Z,6.37
2022-10-11T02:37:55.811Z,18.33
2022-10-11T02:40:32.863Z,7.87
2022-10-11T02:43:13.899Z,11.87
2022-10-11T02:45:44.579Z,11.80
2022-10-11T02:48:12.453Z,10.63
2022-10-11T02:50:39.670Z,8.83
2022-10-11T02:53:06.492Z,12.00
2022-10-11T02:55:33.014Z,14.27
2022-10-11T02:57:59.405Z,15.90
2022-10-11T03:00:26.084Z,13.10
2022-10-11T03:02:52.397Z,13.30
2022-10-11T03:05:18.747Z,10.20
2022-10-11T03:07:45.133Z,14.10
2022-10-11T03:10:11.980Z,15.73
2022-10-11T03:12:38.366Z,12.10
2022-10-11T03:15:05.202Z,15.63
2022-10-11T03:17:36.534Z,24.47
2022-10-11T03:20:04.909Z,14.77
2022-10-11T03:22:31.230Z,23.17
2022-10-11T03:25:02.545Z,13.57
2022-10-11T03:27:30.237Z,23.17
2022-10-11T03:29:57.006Z,29.53
2022-10-11T03:32:23.302Z,36.67
2022-10-11T03:34:49.625Z,48.33
2022-10-11T03:37:16.005Z,44.43
2022-10-11T03:39:42.629Z,44.47
2022-10-11T03:42:08.929Z,47.57
2022-10-11T03:44:35.201Z,52.60
2022-10-11T03:47:01.610Z,50.13
2022-10-11T03:49:27.908Z,60.40
2022-10-11T03:51:54.191Z,69.77
2022-10-11T03:54:20.553Z,51.07
2022-10-11T03:56:46.906Z,63.40
2022-10-11T03:59:13.233Z,135.20
2022-10-11T04:01:39.683Z,61.10
2022-10-11T04:04:06.031Z,67.27
2022-10-11T04:06:32.829Z,52.83
2022-10-11T04:08:59.689Z,97.13
2022-10-11T04:11:26.021Z,94.17
2022-10-11T04:13:52.353Z,64.40
2022-10-11T04:16:18.658Z,76.40
2022-10-11T04:18:44.928Z,69.37
2022-10-11T04:21:11.280Z,68.17
2022-10-11T04:23:37.573Z,88.37
2022-10-11T04:26:07.439Z,54.57
2022-10-11T04:28:34.872Z,41.80
2022-10-11T04:31:01.466Z,65.23
2022-10-11T04:33:27.780Z,56.10
2022-10-11T04:35:55.986Z,45.00
2022-10-11T04:38:23.410Z,38.80
2022-10-11T04:40:49.869Z,31.60
2022-10-11T04:43:17.417Z,33.83
2022-10-11T04:45:43.905Z,34.03
2022-10-11T04:48:10.266Z,30.87
2022-10-11T04:50:37.083Z,24.17
2022-10-11T04:53:03.434Z,20.67
2022-10-11T04:55:29.725Z,16.50
2022-10-11T04:57:56.026Z,13.83
2022-10-11T05:00:22.533Z,13.63
2022-10-11T05:02:48.830Z,15.07
2022-10-11T05:05:17.460Z,11.80
2022-10-11T05:07:44.054Z,12.43
2022-10-11T05:10:10.740Z,12.80
2022-10-11T05:12:37.049Z,10.90
2022-10-11T05:15:03.774Z,9.77
2022-10-11T05:17:30.162Z,10.50
2022-10-11T05:19:56.536Z,9.00
2022-10-11T05:22:22.838Z,10.50
2022-10-11T05:24:49.146Z,10.00
2022-10-11T05:27:15.434Z,9.13
2022-10-11T05:29:41.771Z,10.17
2022-10-11T05:32:08.054Z,9.17
2022-10-11T05:34:34.395Z,9.90
2022-10-11T05:37:00.725Z,9.50
2022-10-11T05:39:27.017Z,8.93
2022-10-11T05:41:53.512Z,12.40
2022-10-11T05:44:19.793Z,10.63
2022-10-11T05:46:46.335Z,10.30
2022-10-11T05:49:12.930Z,44.47
2022-10-11T05:51:39.303Z,116.43
2022-10-11T05:54:05.645Z,12.67
2022-10-11T05:56:31.938Z,13.70
2022-10-11T05:59:02.197Z,24.17
2022-10-11T06:01:29.189Z,33.67
2022-10-11T06:03:55.868Z,13.73
2022-10-11T06:06:22.921Z,11.63
2022-10-11T06:08:49.624Z,7.60
2022-10-11T06:11:21.840Z,6.90
2022-10-11T06:13:48.663Z,7.00
2022-10-11T06:16:16.071Z,8.53
2022-10-11T06:18:42.405Z,12.37
2022-10-11T06:21:08.834Z,10.53
2022-10-11T06:23:35.247Z,10.80
2022-10-11T06:26:05.988Z,20.87
2022-10-11T06:28:34.133Z,29.07
2022-10-11T06:31:02.594Z,25.37
2022-10-11T06:33:28.894Z,47.63
2022-10-11T06:36:05.396Z,13.43
2022-10-11T06:38:32.004Z,22.63
2022-10-11T06:40:58.447Z,25.47
2022-10-11T06:43:25.281Z,15.93
2022-10-11T06:45:51.730Z,24.30
2022-10-11T06:48:18.033Z,21.17
2022-10-11T06:51:00.674Z,19.63
2022-10-11T06:53:27.872Z,27.90
2022-10-11T06:55:54.200Z,33.40
2022-10-11T06:58:20.566Z,27.27
2022-10-11T07:00:46.957Z,31.27
2022-10-11T07:03:13.342Z,21.80
2022-10-11T07:05:39.683Z,30.30
2022-10-11T07:08:05.997Z,22.90
2022-10-11T07:10:32.282Z,33.20
2022-10-11T07:12:58.621Z,26.07
2022-10-11T07:15:25.020Z,25.83
2022-10-11T07:17:51.324Z,36.00
2022-10-11T07:20:17.734Z,35.13
2022-10-11T07:22:44.094Z,40.73
2022-10-11T07:25:10.443Z,48.63
2022-10-11T07:27:36.751Z,33.07
2022-10-11T07:30:03.534Z,49.77
2022-10-11T07:32:29.828Z,46.63
2022-10-11T07:34:56.689Z,50.57
2022-10-11T07:37:22.996Z,48.97
2022-10-11T07:39:49.659Z,32.73
2022-10-11T07:42:15.959Z,43.23
2022-10-11T07:44:42.297Z,50.73
2022-10-11T07:47:11.213Z,59.20
2022-10-11T07:49:37.916Z,38.73
2022-10-11T07:52:04.565Z,53.80
2022-10-11T07:54:30.875Z,40.10
2022-10-11T07:56:57.284Z,39.73
2022-10-11T07:59:23.612Z,44.63
2022-10-11T08:01:50.390Z,39.80
2022-10-11T08:04:16.848Z,39.60
2022-10-11T08:06:43.284Z,34.40
2022-10-11T08:09:10.220Z,38.13
2022-10-11T08:11:37.488Z,28.47
2022-10-11T08:14:08.392Z,35.83
2022-10-11T08:16:36.043Z,33.83
2022-10-11T08:19:03.245Z,31.37
2022-10-11T08:21:30.477Z,33.60
2022-10-11T08:23:56.845Z,31.90
2022-10-11T08:26:24.120Z,37.07
2022-10-11T08:28:50.571Z,39.23
2022-10-11T08:31:16.960Z,39.53
2022-10-11T08:33:43.901Z,39.53
2022-10-11T08:36:11.405Z,34.20
2022-10-11T08:38:39.266Z,45.13
2022-10-11T08:41:34.908Z,40.63
2022-10-11T08:44:01.173Z,41.33
2022-10-11T08:46:33.513Z,40.87
2022-10-11T08:49:01.852Z,45.33
2022-10-11T08:51:32.020Z,41.43
2022-10-11T08:54:10.731Z,41.33
2022-10-11T08:56:40.665Z,43.17
2022-10-11T08:59:24.993Z,40.57
2022-10-11T09:02:01.768Z,42.27
2022-10-11T09:04:28.420Z,38.17
2022-10-11T09:07:28.382Z,43.93
2022-10-11T09:10:12.288Z,41.70
2022-10-11T09:12:55.480Z,43.43
2022-10-11T09:15:38.331Z,39.93
2022-10-11T09:18:30.070Z,38.73
2022-10-11T09:21:05.381Z,38.87
2022-10-11T09:24:09.554Z,80.50
2022-10-11T09:26:59.647Z,30.33
2022-10-11T09:30:00.846Z,36.27
2022-10-11T09:32:31.842Z,37.20
2022-10-11T09:35:09.241Z,40.07
2022-10-11T09:37:54.017Z,38.67
2022-10-11T09:40:45.115Z,35.60
2022-10-11T09:43:12.051Z,40.40
2022-10-11T09:45:45.703Z,41.57
2022-10-11T09:48:22.937Z,38.07
2022-10-11T09:50:51.562Z,43.97
2022-10-11T09:53:19.224Z,47.50
2022-10-11T09:55:53.047Z,41.23
2022-10-11T09:58:34.517Z,48.70
2022-10-11T10:01:07.650Z,44.77
2022-10-11T10:03:40.316Z,42.50
2022-10-11T10:06:16.408Z,47.17
2022-10-11T10:08:45.285Z,44.93
2022-10-11T10:11:12.422Z,50.33
2022-10-11T10:13:46.193Z,39.70
2022-10-11T10:16:23.462Z,44.43
2022-10-11T10:18:56.775Z,48.13
2022-10-11T10:21:33.064Z,40.80
2022-10-11T10:24:03.978Z,48.03
2022-10-11T10:26:32.221Z,41.07
2022-10-11T10:29:05.016Z,40.47
2022-10-11T10:32:12.802Z,37.73
2022-10-11T10:34:41.197Z,42.80
2022-10-11T10:37:29.145Z,43.20
2022-10-11T10:40:16.003Z,39.43
2022-10-11T10:42:42.449Z,41.90
2022-10-11T10:45:20.852Z,40.97
2022-10-11T10:48:08.986Z,42.67
2022-10-11T10:50:58.244Z,44.80
2022-10-11T10:53:34.203Z,37.07
2022-10-11T10:56:39.006Z,47.93
2022-10-11T10:59:47.824Z,42.07
2022-10-11T11:05:29.933Z,31.53
2022-10-11T11:08:10.585Z,31.10
2022-10-11T11:10:47.120Z,30.20
2022-10-11T11:13:25.200Z,30.63
2022-10-11T11:16:30.465Z,33.80
2022-10-11T11:19:34.405Z,28.83
2022-10-11T11:22:09.617Z,29.20
2022-10-11T11:24:48.108Z,25.90
2022-10-11T11:27:26.554Z,23.77
2022-10-11T11:30:18.716Z,22.63
2022-10-11T11:32:50.408Z,20.37
2022-10-11T11:35:33.616Z,21.50
2022-10-11T11:38:20.149Z,25.90
2022-10-11T11:40:52.496Z,23.33
2022-10-11T11:43:28.495Z,21.60
2022-10-11T11:45:59.205Z,21.37
2022-10-11T11:48:26.760Z,17.80
2022-10-11T11:51:05.707Z,22.03
2022-10-11T11:53:49.548Z,17.40
2022-10-11T11:56:27.689Z,20.60
2022-10-11T11:59:14.804Z,15.37
2022-10-11T12:01:49.662Z,14.33
2022-10-11T12:04:26.688Z,13.40
2022-10-11T12:07:17.038Z,17.03
2022-10-11T12:09:50.331Z,11.87
2022-10-11T12:12:30.577Z,13.13
2022-10-11T12:15:18.433Z,11.73
2022-10-11T12:17:57.281Z,11.70
2022-10-11T12:20:29.861Z,9.53
2022-10-11T12:23:24.479Z,10.00
2022-10-11T12:26:28.021Z,14.23
2022-10-11T12:29:27.417Z,7.73
2022-10-11T12:32:00.971Z,11.73
2022-10-11T12:34:37.783Z,11.90
2022-10-11T12:37:19.560Z,10.00
2022-10-11T12:39:54.599Z,10.60
2022-10-11T12:42:25.418Z,12.07
2022-10-11T12:45:13.569Z,8.90
2022-10-11T12:47:55.725Z,11.97
2022-10-11T12:50:37.265Z,10.83
2022-10-11T12:53:17.171Z,7.17
2022-10-11T12:56:04.242Z,7.80
2022-10-11T12:58:46.240Z,10.60
2022-10-11T13:01:22.216Z,10.10
2022-10-11T13:04:09.866Z,9.63
2022-10-11T13:06:45.849Z,8.53
2022-10-11T13:09:12.082Z,10.40
2022-10-11T13:11:48.836Z,6.90
2022-10-11T13:14:19.508Z,13.13
2022-10-11T13:16:45.756Z,12.33
2022-10-11T13:19:14.422Z,11.07
2022-10-11T13:21:40.719Z,8.37
2022-10-11T13:24:15.209Z,7.10
2022-10-11T13:26:44.015Z,11.33
2022-10-11T13:29:23.225Z,10.67
2022-10-11T13:31:49.749Z,9.83
2022-10-11T13:34:18.660Z,9.33
2022-10-11T13:36:47.398Z,15.23
2022-10-11T13:39:31.368Z,9.83
2022-10-11T13:41:59.574Z,10.93
2022-10-11T13:44:26.825Z,10.70
2022-10-11T13:46:53.643Z,6.57
2022-10-11T13:49:25.854Z,11.23
2022-10-11T13:52:01.872Z,10.37
2022-10-11T13:54:52.837Z,8.70
2022-10-11T13:57:45.096Z,12.30
2022-10-11T14:00:17.425Z,10.03
2022-10-11T14:02:50.980Z,9.93
2022-10-11T14:05:27.330Z,10.90
2022-10-11T14:07:53.638Z,9.40
2022-10-11T14:10:23.116Z,10.80
2022-10-11T14:13:03.352Z,10.20
2022-10-11T14:15:36.473Z,10.53
2022-10-11T14:18:34.715Z,10.50
2022-10-11T14:21:19.347Z,12.83
2022-10-11T14:24:07.504Z,8.10
2022-10-11T14:26:36.993Z,11.60
2022-10-11T14:29:12.075Z,11.10
2022-10-11T14:31:41.927Z,12.33
2022-10-11T14:34:15.269Z,9.60
2022-10-11T14:36:41.592Z,10.40
2022-10-11T14:39:15.161Z,13.77
2022-10-11T14:41:41.699Z,9.23
2022-10-11T14:44:08.105Z,8.27
2022-10-11T14:46:35.824Z,9.30
2022-10-11T14:49:02.137Z,10.43
2022-10-11T14:51:34.268Z,10.60
2022-10-11T14:54:00.669Z,13.03
2022-10-11T14:56:27.077Z,10.60
2022-10-11T14:58:53.461Z,8.43
2022-10-11T15:01:19.881Z,10.13
2022-10-11T15:03:46.230Z,11.37
2022-10-11T15:06:22.755Z,10.63
2022-10-11T15:08:49.122Z,11.33
2022-10-11T15:11:17.358Z,10.93
2022-10-11T15:13:44.021Z,13.30
2022-10-11T15:16:12.570Z,13.57
2022-10-11T15:18:39.334Z,14.90
2022-10-11T15:21:06.025Z,13.20
2022-10-11T15:23:32.580Z,10.80
2022-10-11T15:25:59.265Z,11.10
2022-10-11T15:28:29.135Z,12.87
2022-10-11T15:30:56.055Z,11.03
2022-10-11T15:33:23.145Z,9.93
2022-10-11T15:35:49.712Z,10.27
2022-10-11T15:38:20.401Z,13.97
2022-10-11T15:40:47.687Z,11.70
2022-10-11T15:43:14.516Z,10.87
2022-10-11T15:45:41.394Z,11.40
2022-10-11T15:48:08.580Z,11.17
2022-10-11T15:50:39.772Z,12.67
2022-10-11T15:53:08.552Z,10.70
2022-10-11T15:55:40.201Z,9.93
2022-10-11T15:58:12.029Z,9.23
2022-10-11T16:00:38.304Z,10.93
2022-10-11T16:05:32.073Z,12.10
2022-10-11T16:07:58.908Z,12.67
2022-10-11T16:10:25.206Z,14.00
2022-10-11T16:12:51.519Z,9.37
2022-10-11T16:15:17.880Z,14.37
2022-10-11T16:17:46.325Z,16.20
2022-10-11T16:20:13.870Z,13.13
2022-10-11T16:22:40.830Z,9.03
2022-10-11T16:25:07.353Z,9.90
2022-10-11T16:27:33.741Z,13.50
2022-10-11T16:30:00.770Z,15.23
2022-10-11T16:32:27.919Z,13.63
2022-10-11T16:34:54.231Z,12.27
2022-10-11T16:37:20.574Z,14.80
2022-10-11T16:39:46.959Z,15.47
2022-10-11T16:42:13.280Z,13.40
2022-10-11T16:44:39.625Z,14.13
2022-10-11T16:47:06.399Z,16.47
2022-10-11T16:49:33.409Z,16.43
2022-10-11T16:52:00.098Z,20.47
2022-10-11T16:54:30.359Z,17.03
2022-10-11T16:56:57.894Z,18.30
2022-10-11T16:59:24.901Z,15.20
2022-10-11T17:01:51.599Z,13.87
2022-10-11T17:04:18.294Z,10.97
2022-10-11T17:06:44.842Z,12.27
2022-10-11T17:09:11.806Z,10.97
2022-10-11T17:11:38.325Z,14.90
2022-10-11T17:14:05.813Z,15.00
2022-10-11T17:16:32.392Z,11.90
2022-10-11T17:18:58.721Z,12.87
2022-10-11T17:21:25.100Z,11.50
2022-10-11T17:23:51.670Z,13.70
2022-10-11T17:26:21.225Z,19.10
2022-10-11T17:28:48.212Z,13.60
2022-10-11T17:31:15.140Z,15.93
2022-10-11T17:33:41.544Z,19.30
2022-10-11T17:36:34.555Z,15.47
2022-10-11T17:39:04.892Z,15.07
2022-10-11T17:41:32.325Z,16.63
2022-10-11T17:43:59.351Z,16.60
2022-10-11T17:46:27.546Z,16.73
2022-10-11T17:48:56.729Z,18.97
2022-10-11T17:51:23.074Z,20.00
2022-10-11T17:53:52.825Z,26.10
2022-10-11T17:56:28.761Z,16.87
2022-10-11T17:58:57.885Z,17.43
2022-10-11T18:01:27.306Z,19.23
2022-10-11T18:03:56.936Z,21.67
2022-10-11T18:06:25.036Z,14.33
2022-10-11T18:08:51.583Z,22.33
2022-10-11T18:11:19.771Z,21.63
2022-10-11T18:13:51.079Z,24.87
2022-10-11T18:16:19.536Z,21.53
2022-10-11T18:18:46.533Z,16.30
2022-10-11T18:21:13.380Z,17.13
2022-10-11T18:23:40.534Z,18.57
2022-10-11T18:26:12.297Z,19.70
2022-10-11T18:28:40.437Z,24.87
2022-10-11T18:31:12.806Z,21.87
2022-10-11T18:33:39.592Z,22.60
2022-10-11T18:36:07.656Z,24.13
2022-10-11T18:38:35.027Z,24.50
2022-10-11T18:41:06.676Z,17.80
2022-10-11T18:43:34.100Z,19.90
2022-10-11T18:46:09.620Z,18.50
2022-10-11T18:48:36.327Z,19.67
2022-10-11T18:51:08.226Z,18.37
2022-10-11T18:53:35.948Z,21.50
2022-10-11T18:56:04.786Z,20.00
2022-10-11T18:58:33.383Z,17.77
2022-10-11T19:01:11.028Z,14.13
2022-10-11T19:03:38.458Z,15.60
2022-10-11T19:06:07.751Z,16.27
2022-10-11T19:08:34.826Z,12.80
2022-10-11T19:11:06.416Z,15.00
2022-10-11T19:13:33.003Z,12.97
2022-10-11T19:16:14.185Z,14.73
2022-10-11T19:18:44.293Z,12.40
2022-10-11T19:21:12.846Z,15.93
2022-10-11T19:23:41.479Z,15.50
2022-10-11T19:26:16.490Z,14.07
2022-10-11T19:28:43.864Z,11.60
2022-10-11T19:31:13.040Z,14.00
2022-10-11T19:33:39.696Z,13.50
2022-10-11T19:36:06.776Z,11.23
2022-10-11T19:38:35.133Z,17.97
2022-10-11T19:41:02.707Z,16.47
2022-10-11T19:43:29.099Z,18.10
2022-10-11T19:46:02.843Z,18.97
2022-10-11T19:48:29.999Z,12.47
2022-10-11T19:51:08.445Z,13.30
2022-10-11T19:53:35.736Z,14.53
2022-10-11T19:56:04.122Z,11.60
2022-10-11T19:58:30.530Z,25.33
2022-10-11T20:01:02.736Z,12.80
2022-10-11T20:03:29.172Z,16.53
2022-10-11T20:05:58.302Z,11.83
2022-10-11T20:08:24.751Z,9.43
2022-10-11T20:10:53.624Z,9.53
2022-10-11T20:13:20.080Z,11.63
2022-10-11T20:15:46.434Z,11.10
2022-10-11T20:18:12.721Z,10.83
2022-10-11T20:20:39.080Z,10.40
2022-10-11T20:23:05.397Z,15.10
2022-10-11T20:25:31.746Z,10.90
2022-10-11T20:27:58.032Z,13.13
2022-10-11T20:30:24.398Z,9.83
2022-10-11T20:32:50.674Z,9.47
2022-10-11T20:35:16.957Z,9.37
2022-10-11T20:37:43.336Z,11.37
2022-10-11T20:40:10.477Z,5.43
2022-10-11T20:42:37.144Z,9.40
2022-10-11T20:45:03.773Z,8.57
2022-10-11T20:47:30.078Z,11.80
2022-10-11T20:49:56.388Z,9.43
2022-10-11T20:52:22.649Z,9.97
2022-10-11T20:54:49.028Z,10.03
2022-10-11T20:57:15.311Z,16.70
2022-10-11T20:59:41.770Z,6.83
2022-10-11T21:02:10.157Z,8.63
2022-10-11T21:04:36.513Z,8.10
2022-10-11T21:07:02.816Z,6.60
2022-10-11T21:09:29.149Z,10.43
2022-10-11T21:11:55.480Z,13.03
2022-10-11T21:14:21.922Z,7.97
2022-10-11T21:16:48.233Z,12.30
2022-10-11T21:19:15.734Z,12.30
2022-10-11T21:21:42.956Z,12.67
2022-10-11T21:24:09.543Z,11.43
2022-10-11T21:26:35.849Z,13.13
2022-10-11T21:29:03.935Z,6.43
2022-10-11T21:31:34.132Z,7.20
2022-10-11T21:34:01.346Z,12.90
2022-10-11T21:36:27.809Z,6.57
2022-10-11T21:38:54.348Z,11.70
2022-10-11T21:41:22.892Z,10.23
2022-10-11T21:43:49.410Z,13.23
2022-10-11T21:46:53.967Z,9.03
2022-10-11T21:49:16.527Z,12.30
2022-10-11T21:51:42.905Z,8.30
2022-10-11T21:54:09.473Z,8.50
2022-10-11T21:56:35.890Z,7.03
2022-10-11T21:59:03.048Z,9.17
2022-10-11T22:01:30.712Z,9.70
2022-10-11T22:03:57.226Z,10.33
2022-10-11T22:06:23.758Z,10.23
2022-10-11T22:08:50.425Z,10.73
2022-10-11T22:11:17.770Z,6.87
2022-10-11T22:13:44.149Z,9.00
2022-10-11T22:16:13.168Z,8.97
2022-10-11T22:18:41.193Z,10.00
2022-10-11T22:21:13.626Z,10.43
2022-10-11T22:23:44.577Z,8.13
2022-10-11T22:26:14.574Z,7.67
2022-10-11T22:28:41.655Z,6.87
2022-10-11T22:31:09.876Z,7.00
2022-10-11T22:33:37.397Z,9.63
2022-10-11T22:36:08.640Z,8.87
2022-10-11T22:38:36.290Z,7.80
2022-10-11T22:41:02.750Z,6.77
2022-10-11T22:43:29.137Z,6.07
2022-10-11T22:45:55.429Z,7.73
2022-10-11T22:48:21.792Z,9.03
2022-10-11T22:50:48.108Z,7.27
2022-10-11T22:53:15.631Z,7.97
2022-10-11T22:55:42.205Z,13.03
2022-10-11T22:58:08.892Z,8.20
2022-10-11T23:00:35.794Z,7.53
2022-10-11T23:03:02.148Z,6.43
2022-10-11T23:05:28.475Z,7.10
2022-10-11T23:07:54.772Z,13.60
2022-10-11T23:10:21.104Z,5.47
2022-10-11T23:12:47.428Z,6.60
2022-10-11T23:15:13.869Z,8.13
2022-10-11T23:17:40.168Z,5.10
2022-10-11T23:20:07.195Z,7.57
2022-10-11T23:22:33.514Z,8.83
2022-10-11T23:24:59.841Z,7.60
2022-10-11T23:27:26.200Z,7.33
2022-10-11T23:29:52.479Z,9.87
2022-10-11T23:32:18.797Z,10.07
2022-10-11T23:34:45.615Z,5.33
2022-10-11T23:37:11.914Z,5.70
2022-10-11T23:39:38.236Z,7.43
2022-10-11T23:42:04.621Z,7.30
2022-10-11T23:44:30.913Z,8.20
2022-10-11T23:46:57.263Z,7.47
2022-10-11T23:49:23.630Z,6.60
2022-10-11T23:51:49.942Z,5.03
2022-10-11T23:54:16.257Z,6.67
2022-10-11T23:56:42.532Z,6.63
2022-10-11T23:59:08.900Z,10.43
